createdAt,value
2022-10-20T00:01:20.023Z,63131.69
2022-10-20T00:03:51.924Z,63131.69
2022-10-20T00:06:21.363Z,63131.69
2022-10-20T00:08:49.798Z,63131.69
2022-10-20T00:11:19.904Z,63131.69
2022-10-20T00:13:49.011Z,63131.69
2022-10-20T00:16:17.005Z,63131.69
2022-10-20T00:18:45.091Z,63131.69
2022-10-20T00:21:15.463Z,63131.69
2022-10-20T00:23:43.508Z,63131.69
2022-10-20T00:26:12.762Z,63131.69
2022-10-20T00:28:40.769Z,63131.69
2022-10-20T00:31:11.692Z,63131.69
2022-10-20T00:33:39.855Z,63131.69
2022-10-20T00:36:08.755Z,63131.69
2022-10-20T00:38:38.060Z,63131.69
2022-10-20T00:41:08.362Z,63131.69
2022-10-20T00:43:46.922Z,63131.69
2022-10-20T00:46:16.768Z,63131.69
2022-10-20T00:48:47.315Z,63131.69
2022-10-20T00:51:17.261Z,63131.69
2022-10-20T00:53:47.619Z,63131.69
2022-10-20T00:56:15.905Z,63131.69
2022-10-20T00:58:44.583Z,63131.69
2022-10-20T01:01:14.135Z,63131.69
2022-10-20T01:03:45.782Z,63131.69
2022-10-20T01:08:52.162Z,63131.69
2022-10-20T01:11:27.084Z,63131.69
2022-10-20T01:14:02.747Z,63131.69
2022-10-20T01:16:37.633Z,63131.69
2022-10-20T01:19:11.547Z,63131.69
2022-10-20T01:22:03.559Z,63131.69
2022-10-20T01:24:41.006Z,63131.69
2022-10-20T01:27:39.255Z,63131.69
2022-10-20T01:30:10.712Z,63131.69
2022-10-20T01:32:48.980Z,63131.69
2022-10-20T01:35:23.382Z,63131.69
2022-10-20T01:37:54.240Z,63131.69
2022-10-20T01:41:03.771Z,98953.50
2022-10-20T01:43:34.822Z,98953.50
2022-10-20T01:46:08.062Z,98766.13
2022-10-20T01:48:37.929Z,98773.66
2022-10-20T01:51:06.016Z,98766.28
2022-10-20T01:53:36.074Z,98764.03
2022-10-20T01:56:04.617Z,98760.75
2022-10-20T01:58:51.415Z,98756.38
2022-10-20T02:01:27.467Z,98756.44
2022-10-20T02:03:59.352Z,98756.44
2022-10-20T02:06:33.931Z,98756.44
2022-10-20T02:09:04.430Z,98756.44
2022-10-20T02:11:39.095Z,98756.44
2022-10-20T02:15:06.929Z,63131.69
2022-10-20T02:18:37.858Z,63131.69
2022-10-20T02:22:05.580Z,63131.69
2022-10-20T02:25:32.871Z,63131.69
2022-10-20T02:29:01.499Z,63131.69
2022-10-20T02:32:28.436Z,63131.69
2022-10-20T02:34:57.766Z,98725.09
2022-10-20T02:37:25.767Z,98726.66
2022-10-20T02:39:53.811Z,98727.84
2022-10-20T02:42:21.773Z,98718.63
2022-10-20T02:44:49.719Z,98717.28
2022-10-20T02:47:20.943Z,98720.78
2022-10-20T02:49:49.194Z,98720.31
2022-10-20T02:52:18.535Z,98721.25
2022-10-20T02:54:46.730Z,98717.22
2022-10-20T02:57:17.356Z,98720.44
2022-10-20T02:59:47.635Z,98722.44
2022-10-20T03:02:15.636Z,98719.28
2022-10-20T03:04:43.621Z,98712.69
2022-10-20T03:07:11.775Z,98714.81
2022-10-20T03:09:41.203Z,98713.91
2022-10-20T03:12:09.211Z,98708.75
2022-10-20T03:14:37.186Z,98716.16
2022-10-20T03:17:05.227Z,98720.31
2022-10-20T03:19:33.230Z,98715.56
2022-10-20T03:22:01.180Z,98717.94
2022-10-20T03:24:31.458Z,98719.31
2022-10-20T03:27:00.724Z,98717.63
2022-10-20T03:29:28.698Z,98712.94
2022-10-20T03:31:56.631Z,98713.25
2022-10-20T03:34:24.736Z,98704.38
2022-10-20T03:36:52.679Z,63131.69
2022-10-20T03:39:47.216Z,63131.69
2022-10-20T03:42:18.805Z,98695.25
2022-10-20T03:44:46.834Z,98701.94
2022-10-20T03:47:14.838Z,98691.63
2022-10-20T03:49:45.193Z,98694.84
2022-10-20T03:52:13.205Z,98702.78
2022-10-20T03:54:41.782Z,98705.03
2022-10-20T03:57:09.752Z,98694.16
2022-10-20T03:59:39.231Z,98696.22
2022-10-20T04:02:07.244Z,98694.44
2022-10-20T04:05:36.102Z,63131.69
2022-10-20T04:09:02.792Z,63131.69
2022-10-20T04:12:29.451Z,63131.69
2022-10-20T04:15:08.813Z,63131.69
2022-10-20T04:17:51.804Z,63131.69
2022-10-20T04:20:22.187Z,63131.69
2022-10-20T04:23:48.911Z,63131.69
2022-10-20T04:27:17.636Z,63131.69
2022-10-20T04:30:46.086Z,63131.69
2022-10-20T04:34:12.598Z,63131.69
2022-10-20T04:41:29.960Z,63131.69
2022-10-20T04:48:31.391Z,63131.69
2022-10-20T04:52:00.954Z,63131.69
2022-10-20T04:55:30.296Z,63131.69
2022-10-20T04:58:58.207Z,63131.69
2022-10-20T05:02:24.970Z,63131.69
2022-10-20T05:05:54.924Z,63131.69
2022-10-20T05:09:21.403Z,63131.69
2022-10-20T05:12:47.897Z,63131.69
2022-10-20T05:16:14.571Z,63131.69
2022-10-20T05:19:41.088Z,63131.69
2022-10-20T05:23:08.910Z,63131.69
2022-10-20T05:26:37.305Z,63131.69
2022-10-20T05:30:03.955Z,63131.69
2022-10-20T05:33:30.499Z,63131.69
2022-10-20T05:36:57.053Z,63131.69
2022-10-20T05:40:25.095Z,63131.69
2022-10-20T05:43:52.299Z,63131.69
2022-10-20T05:47:18.763Z,63131.69
2022-10-20T05:50:47.379Z,63131.69
2022-10-20T05:53:17.593Z,98576.25
2022-10-20T05:55:46.942Z,98585.31
2022-10-20T05:58:16.816Z,98585.25
2022-10-20T06:00:52.650Z,98591.81
2022-10-20T06:03:23.675Z,98608.50
2022-10-20T06:05:57.806Z,98604.25
2022-10-20T06:08:25.998Z,98611.75
2022-10-20T06:10:57.593Z,98604.13
2022-10-20T06:13:27.657Z,98610.81
2022-10-20T06:15:55.646Z,98606.78
2022-10-20T06:18:25.999Z,98611.09
2022-10-20T06:20:59.926Z,98611.44
2022-10-20T06:23:28.090Z,98617.44
2022-10-20T06:26:01.994Z,98619.72
2022-10-20T06:28:30.559Z,98618.47
2022-10-20T06:30:58.575Z,98622.66
2022-10-20T06:33:26.905Z,98619.50
2022-10-20T06:35:59.108Z,98616.34
2022-10-20T06:38:27.089Z,98624.31
2022-10-20T06:40:55.141Z,98619.00
2022-10-20T06:43:24.498Z,98614.41
2022-10-20T06:45:55.682Z,98618.41
2022-10-20T06:48:23.872Z,98622.81
2022-10-20T06:50:56.552Z,98622.34
2022-10-20T06:53:24.875Z,98622.28
2022-10-20T06:55:56.795Z,98613.41
2022-10-20T06:58:26.612Z,98606.34
2022-10-20T07:01:02.600Z,98602.09
2022-10-20T07:03:33.223Z,98596.44
2022-10-20T07:06:03.953Z,98609.06
2022-10-20T07:08:33.119Z,98619.81
2022-10-20T07:11:02.098Z,98622.16
2022-10-20T07:13:31.564Z,98621.31
2022-10-20T07:16:00.238Z,98614.97
2022-10-20T07:18:29.427Z,98605.88
2022-10-20T07:20:58.269Z,98611.38
2022-10-20T07:23:26.328Z,98619.88
2022-10-20T07:26:00.701Z,98608.09
2022-10-20T07:28:28.742Z,98596.47
2022-10-20T07:30:59.707Z,98593.06
2022-10-20T07:33:27.760Z,98590.09
2022-10-20T07:35:55.762Z,98602.91
2022-10-20T07:38:23.823Z,98606.97
2022-10-20T07:40:51.832Z,98595.16
2022-10-20T07:43:20.213Z,98592.22
2022-10-20T07:45:50.585Z,98591.16
2022-10-20T07:48:19.968Z,98585.72
2022-10-20T07:50:47.960Z,98582.56
2022-10-20T07:53:15.950Z,98594.09
2022-10-20T07:55:45.872Z,98588.47
2022-10-20T07:58:13.943Z,98589.69
2022-10-20T08:00:41.990Z,98578.44
2022-10-20T08:03:12.120Z,98572.78
2022-10-20T08:05:43.588Z,98570.88
2022-10-20T08:08:11.635Z,98573.56
2022-10-20T08:10:39.694Z,98563.22
2022-10-20T08:13:07.700Z,98555.97
2022-10-20T08:15:37.775Z,98549.22
2022-10-20T08:18:05.959Z,98530.53
2022-10-20T08:20:35.922Z,98533.19
2022-10-20T08:23:05.346Z,98527.72
2022-10-20T08:25:33.438Z,98522.41
2022-10-20T08:28:03.963Z,98541.66
2022-10-20T08:30:32.108Z,98543.22
2022-10-20T08:33:00.143Z,98528.13
2022-10-20T08:35:28.433Z,98524.50
2022-10-20T08:37:56.473Z,98523.50
2022-10-20T08:40:27.879Z,98519.31
2022-10-20T08:42:56.598Z,98524.06
2022-10-20T08:45:25.799Z,98534.88
2022-10-20T08:47:55.145Z,98527.63
2022-10-20T08:50:23.585Z,98540.66
2022-10-20T08:52:54.008Z,98539.09
2022-10-20T08:55:25.674Z,98526.72
2022-10-20T08:57:57.857Z,98524.34
2022-10-20T09:00:26.293Z,98529.78
2022-10-20T09:02:55.236Z,98522.09
2022-10-20T09:05:25.894Z,98515.28
2022-10-20T09:07:55.008Z,98522.03
2022-10-20T09:10:30.331Z,98517.13
2022-10-20T09:13:00.352Z,98515.72
2022-10-20T09:15:29.198Z,98512.72
2022-10-20T09:18:00.559Z,98514.53
2022-10-20T09:20:30.986Z,98513.06
2022-10-20T09:23:01.319Z,98526.06
2022-10-20T09:25:32.815Z,98531.88
2022-10-20T09:28:02.112Z,98535.69
2022-10-20T09:30:34.300Z,98535.31
2022-10-20T09:33:20.982Z,98527.25
2022-10-20T09:35:49.245Z,98525.09
2022-10-20T09:38:19.143Z,98532.69
2022-10-20T09:40:54.870Z,98530.66
2022-10-20T09:43:26.344Z,98540.09
2022-10-20T09:45:55.711Z,98539.34
2022-10-20T09:48:25.593Z,98531.78
2022-10-20T09:50:55.267Z,98518.00
2022-10-20T09:53:26.290Z,98518.25
2022-10-20T09:55:56.578Z,98521.00
2022-10-20T09:58:28.438Z,98517.41
2022-10-20T10:00:57.993Z,98523.03
2022-10-20T10:03:26.381Z,98526.28
2022-10-20T10:05:55.189Z,98513.97
2022-10-20T10:08:25.253Z,98510.66
2022-10-20T10:11:00.604Z,98498.56
2022-10-20T10:13:30.711Z,98500.88
2022-10-20T10:16:03.658Z,98513.94
2022-10-20T10:18:31.851Z,98505.03
2022-10-20T10:21:01.435Z,98506.41
2022-10-20T10:23:30.287Z,98514.06
2022-10-20T10:26:02.029Z,98508.03
2022-10-20T10:28:36.853Z,98500.34
2022-10-20T10:31:09.718Z,98504.53
2022-10-20T10:33:37.824Z,98499.06
2022-10-20T10:36:08.374Z,98502.53
2022-10-20T10:38:37.249Z,98502.56
2022-10-20T10:41:10.136Z,98493.03
2022-10-20T10:43:44.898Z,98488.38
2022-10-20T10:46:17.926Z,98485.94
2022-10-20T10:49:00.545Z,98483.94
2022-10-20T10:51:34.868Z,98475.84
2022-10-20T10:54:11.833Z,98472.81
2022-10-20T10:56:44.685Z,98480.38
2022-10-20T10:59:20.152Z,98478.78
2022-10-20T11:02:20.028Z,98468.91
2022-10-20T11:05:02.999Z,98458.63
2022-10-20T11:07:37.175Z,98457.78
2022-10-20T11:10:10.684Z,98462.72
2022-10-20T11:12:43.598Z,98458.59
2022-10-20T11:15:20.582Z,98463.16
2022-10-20T11:17:53.225Z,98446.84
2022-10-20T11:20:25.623Z,98441.69
2022-10-20T11:23:03.954Z,98427.66
2022-10-20T11:25:34.155Z,98429.25
2022-10-20T11:28:02.599Z,98436.69
2022-10-20T11:30:34.491Z,98427.69
2022-10-20T11:33:08.935Z,98440.13
2022-10-20T11:35:41.011Z,98448.78
2022-10-20T11:38:14.881Z,98439.22
2022-10-20T11:40:45.916Z,98429.38
2022-10-20T11:43:17.700Z,98424.44
2022-10-20T11:45:50.664Z,98434.31
2022-10-20T11:48:23.566Z,98416.84
2022-10-20T11:50:56.197Z,98409.16
2022-10-20T11:53:39.060Z,98406.75
2022-10-20T11:56:22.876Z,98403.53
2022-10-20T11:59:02.506Z,98399.56
2022-10-20T12:01:37.348Z,98399.97
2022-10-20T12:04:17.495Z,98397.31
2022-10-20T12:07:02.698Z,98393.75
2022-10-20T12:09:52.234Z,98397.78
2022-10-20T12:12:21.946Z,98396.22
2022-10-20T12:14:52.972Z,98411.19
2022-10-20T12:17:27.653Z,98407.16
2022-10-20T12:20:19.654Z,98408.25
2022-10-20T12:22:48.188Z,98404.09
2022-10-20T12:25:24.157Z,98400.94
2022-10-20T12:28:07.011Z,98401.63
2022-10-20T12:30:42.851Z,98401.81
2022-10-20T12:33:19.308Z,98394.38
2022-10-20T12:36:05.397Z,98402.00
2022-10-20T12:38:33.687Z,98387.84
2022-10-20T12:41:02.503Z,98392.66
2022-10-20T12:43:36.704Z,98386.75
2022-10-20T12:46:07.429Z,98398.78
2022-10-20T12:48:41.760Z,98405.59
2022-10-20T12:51:17.921Z,98408.59
2022-10-20T12:53:52.214Z,98404.78
2022-10-20T12:56:21.188Z,98412.97
2022-10-20T12:59:10.155Z,98410.78
2022-10-20T13:01:53.008Z,98409.72
2022-10-20T13:04:44.718Z,98397.13
2022-10-20T13:07:14.870Z,98392.75
2022-10-20T13:09:58.930Z,98397.38
2022-10-20T13:12:30.650Z,98383.41
2022-10-20T13:15:04.632Z,98371.38
2022-10-20T13:17:41.932Z,98370.03
2022-10-20T13:20:28.921Z,98374.66
2022-10-20T13:25:36.655Z,98382.31
2022-10-20T13:28:06.467Z,98382.56
2022-10-20T13:30:35.546Z,98393.22
2022-10-20T13:35:59.068Z,98373.59
2022-10-20T13:38:34.041Z,98369.78
2022-10-20T13:41:05.695Z,98365.69
2022-10-20T13:43:38.928Z,98374.72
2022-10-20T13:46:20.189Z,98373.09
2022-10-20T13:48:56.755Z,98381.81
2022-10-20T13:51:26.485Z,98391.66
2022-10-20T13:53:57.363Z,98399.03
2022-10-20T13:56:35.114Z,98402.56
2022-10-20T13:59:06.065Z,98396.00
2022-10-20T14:01:35.507Z,98388.06
2022-10-20T14:04:03.653Z,98398.44
2022-10-20T14:06:35.446Z,98400.03
2022-10-20T14:09:12.133Z,98409.63
2022-10-20T14:11:40.674Z,98404.13
2022-10-20T14:14:12.323Z,98398.69
2022-10-20T14:16:40.503Z,98399.81
2022-10-20T14:19:09.682Z,98396.00
2022-10-20T14:21:41.274Z,98396.00
2022-10-20T14:24:13.559Z,98399.78
2022-10-20T14:26:43.979Z,98404.47
2022-10-20T14:29:13.675Z,98401.44
2022-10-20T14:31:41.812Z,98402.50
2022-10-20T14:34:20.036Z,98401.03
2022-10-20T14:36:48.812Z,98373.16
2022-10-20T14:39:31.088Z,98368.25
2022-10-20T14:42:00.357Z,98365.28
2022-10-20T14:44:31.815Z,98363.03
2022-10-20T14:47:04.559Z,98344.22
2022-10-20T14:49:34.956Z,98343.91
2022-10-20T14:52:04.511Z,98358.66
2022-10-20T14:54:36.844Z,98362.59
2022-10-20T14:57:36.016Z,98359.25
2022-10-20T15:00:19.052Z,98373.72
2022-10-20T15:02:56.000Z,98379.09
2022-10-20T15:05:25.295Z,98389.19
2022-10-20T15:07:53.716Z,98377.44
2022-10-20T15:10:25.066Z,98373.34
2022-10-20T15:12:56.019Z,98372.00
2022-10-20T15:15:25.385Z,98377.47
2022-10-20T15:17:54.375Z,98375.06
2022-10-20T15:20:37.323Z,98373.28
2022-10-20T15:23:06.495Z,98367.34
2022-10-20T15:25:41.070Z,98379.91
2022-10-20T15:28:22.394Z,98367.94
2022-10-20T15:30:50.522Z,98367.34
2022-10-20T15:33:21.223Z,98374.28
2022-10-20T15:35:50.442Z,98367.97
2022-10-20T15:38:18.615Z,98368.28
2022-10-20T15:40:48.001Z,98377.28
2022-10-20T15:43:17.016Z,98378.38
2022-10-20T15:45:46.025Z,98385.47
2022-10-20T15:48:14.070Z,98376.38
2022-10-20T15:50:42.430Z,98374.81
2022-10-20T15:53:11.752Z,98366.63
2022-10-20T15:55:41.416Z,98369.41
2022-10-20T15:58:10.766Z,98372.03
2022-10-20T16:00:38.947Z,98361.91
2022-10-20T16:03:14.122Z,98366.28
2022-10-20T16:05:42.093Z,98359.78
2022-10-20T16:08:10.126Z,98356.94
2022-10-20T16:10:38.895Z,98356.88
2022-10-20T16:13:07.020Z,98360.00
2022-10-20T16:15:36.764Z,98369.19
2022-10-20T16:18:07.368Z,98368.41
2022-10-20T16:20:37.786Z,98367.53
2022-10-20T16:23:05.845Z,98347.41
2022-10-20T16:25:33.854Z,98371.50
2022-10-20T16:28:01.863Z,98368.25
2022-10-20T16:30:29.872Z,98373.44
2022-10-20T16:32:59.399Z,98382.91
2022-10-20T16:35:27.467Z,98385.38
2022-10-20T16:37:55.484Z,98371.19
2022-10-20T16:40:23.488Z,98364.84
2022-10-20T16:42:51.479Z,98367.91
2022-10-20T16:45:19.517Z,98355.28
2022-10-20T16:47:47.580Z,98371.66
2022-10-20T16:50:17.019Z,98360.28
2022-10-20T16:52:45.403Z,98358.88
2022-10-20T16:55:13.369Z,98359.22
2022-10-20T16:57:43.692Z,98363.22
2022-10-20T17:00:12.211Z,98362.50
2022-10-20T17:02:44.779Z,98367.69
2022-10-20T17:05:12.811Z,98377.75
2022-10-20T17:07:42.153Z,98381.44
2022-10-20T17:10:10.300Z,98368.34
2022-10-20T17:12:38.309Z,98385.25
2022-10-20T17:15:06.638Z,98381.25
2022-10-20T17:17:36.989Z,98379.03
2022-10-20T17:20:07.980Z,98364.84
2022-10-20T17:22:36.294Z,98367.59
2022-10-20T17:25:06.291Z,98365.06
2022-10-20T17:27:34.387Z,98372.56
2022-10-20T17:30:02.713Z,98378.84
2022-10-20T17:32:30.706Z,98392.94
2022-10-20T17:35:01.403Z,98371.84
2022-10-20T17:37:29.417Z,98391.91
2022-10-20T17:39:57.403Z,98384.03
2022-10-20T17:42:26.741Z,98370.72
2022-10-20T17:44:56.831Z,98372.13
2022-10-20T17:47:24.896Z,98368.41
2022-10-20T17:49:52.930Z,98379.13
2022-10-20T17:52:20.997Z,98381.59
2022-10-20T17:54:48.964Z,98399.06
2022-10-20T17:57:19.301Z,98412.41
2022-10-20T17:59:53.424Z,98413.06
2022-10-20T18:02:23.573Z,98422.22
2022-10-20T18:04:51.560Z,98434.16
2022-10-20T18:07:19.532Z,98431.38
2022-10-20T18:09:47.589Z,98437.47
2022-10-20T18:12:15.586Z,98458.94
2022-10-20T18:14:43.645Z,98451.34
2022-10-20T18:17:13.273Z,98436.22
2022-10-20T18:19:41.318Z,98435.69
2022-10-20T18:22:09.306Z,98442.91
2022-10-20T18:24:37.379Z,98460.50
2022-10-20T18:27:05.840Z,98461.00
2022-10-20T18:29:33.876Z,98442.72
2022-10-20T18:32:01.870Z,98443.28
2022-10-20T18:34:31.552Z,98440.56
2022-10-20T18:37:03.300Z,98432.28
2022-10-20T18:39:31.695Z,98434.16
2022-10-20T18:41:59.740Z,98426.25
2022-10-20T18:47:01.146Z,98429.13
2022-10-20T18:49:32.595Z,98408.63
2022-10-20T18:52:00.579Z,98433.66
2022-10-20T18:54:28.580Z,98420.97
2022-10-20T18:56:56.562Z,98420.72
2022-10-20T18:59:24.630Z,98429.81
2022-10-20T19:01:52.663Z,98432.03
2022-10-20T19:04:20.665Z,98433.19
2022-10-20T19:06:52.777Z,98433.34
2022-10-20T19:09:21.578Z,98441.00
2022-10-20T19:14:23.109Z,98430.47
2022-10-20T19:16:51.185Z,98442.47
2022-10-20T19:19:19.246Z,98423.63
2022-10-20T19:21:47.381Z,98423.38
2022-10-20T19:24:18.162Z,98420.69
2022-10-20T19:26:56.995Z,98438.16
2022-10-20T19:29:35.306Z,98437.75
2022-10-20T19:32:03.631Z,98425.88
2022-10-20T19:34:33.039Z,98454.69
2022-10-20T19:37:01.376Z,98446.84
2022-10-20T19:39:32.150Z,98418.53
2022-10-20T19:42:01.264Z,98416.72
2022-10-20T19:44:32.186Z,98421.59
2022-10-20T19:47:00.177Z,98429.72
2022-10-20T19:49:28.506Z,98430.31
2022-10-20T19:51:56.469Z,98437.16
2022-10-20T19:54:24.755Z,98430.16
2022-10-20T19:56:54.167Z,98418.78
2022-10-20T19:59:22.219Z,98420.75
2022-10-20T20:01:52.239Z,98421.91
2022-10-20T20:04:20.274Z,98426.66
2022-10-20T20:06:48.602Z,98427.69
2022-10-20T20:09:16.679Z,98430.00
2022-10-20T20:11:44.960Z,98439.56
2022-10-20T20:14:15.123Z,98444.00
2022-10-20T20:19:16.647Z,98434.19
2022-10-20T20:21:45.802Z,98427.25
2022-10-20T20:24:14.343Z,98440.25
2022-10-20T20:26:43.300Z,98448.78
2022-10-20T20:29:11.630Z,98455.03
2022-10-20T20:31:41.078Z,98444.94
2022-10-20T20:34:09.171Z,98450.66
2022-10-20T20:36:39.293Z,98447.22
2022-10-20T20:39:08.087Z,98446.16
2022-10-20T20:41:38.438Z,98456.84
2022-10-20T20:44:08.423Z,98469.50
2022-10-20T20:46:37.030Z,98451.59
2022-10-20T20:49:06.392Z,98432.16
2022-10-20T20:51:34.486Z,98437.25
2022-10-20T20:54:02.771Z,98456.84
2022-10-20T20:56:30.885Z,98470.13
2022-10-20T20:58:58.860Z,98480.75
2022-10-20T21:01:28.171Z,98478.78
2022-10-20T21:03:56.440Z,98484.19
2022-10-20T21:06:33.219Z,98473.72
2022-10-20T21:09:06.566Z,98462.88
2022-10-20T21:11:34.591Z,98463.03
2022-10-20T21:14:02.884Z,98446.78
2022-10-20T21:16:31.774Z,98447.91
2022-10-20T21:19:00.785Z,98435.16
2022-10-20T21:21:31.481Z,98430.44
2022-10-20T21:24:00.170Z,98431.13
2022-10-20T21:26:29.950Z,98430.25
2022-10-20T21:28:58.273Z,98422.41
2022-10-20T21:31:27.260Z,98419.09
2022-10-20T21:33:56.342Z,98407.94
2022-10-20T21:36:25.264Z,98416.56
2022-10-20T21:38:54.762Z,98419.44
2022-10-20T21:41:23.717Z,98414.81
2022-10-20T21:43:52.496Z,98409.69
2022-10-20T21:46:21.521Z,98410.59
2022-10-20T21:48:50.406Z,98410.94
2022-10-20T21:51:19.731Z,98416.13
2022-10-20T21:53:47.749Z,98420.50
2022-10-20T21:56:17.190Z,98417.75
2022-10-20T21:58:45.121Z,98413.63
2022-10-20T22:02:36.448Z,98405.63
2022-10-20T22:05:04.666Z,98407.16
2022-10-20T22:07:32.639Z,98403.22
2022-10-20T22:10:01.007Z,98400.06
2022-10-20T22:12:29.026Z,98392.25
2022-10-20T22:14:57.000Z,98391.53
2022-10-20T22:17:24.944Z,98402.97
2022-10-20T22:19:54.275Z,98404.94
2022-10-20T22:22:22.320Z,98400.06
2022-10-20T22:24:50.295Z,98407.66
2022-10-20T22:27:31.478Z,98405.75
2022-10-20T22:30:07.048Z,98399.91
2022-10-20T22:32:35.235Z,98397.91
2022-10-20T22:35:05.032Z,98388.06
2022-10-20T22:37:33.018Z,98378.22
2022-10-20T22:40:00.955Z,98382.72
2022-10-20T22:42:28.943Z,98376.50
2022-10-20T22:44:56.895Z,98364.97
2022-10-20T22:47:24.848Z,98364.00
2022-10-20T22:49:52.784Z,98355.25
2022-10-20T22:52:22.134Z,98367.16
2022-10-20T22:54:50.098Z,98366.06
2022-10-20T22:57:18.059Z,98366.13
2022-10-20T22:59:45.983Z,98368.28
2022-10-20T23:02:14.021Z,98356.00
2022-10-20T23:04:41.985Z,98346.53
2022-10-20T23:07:09.947Z,98347.59
2022-10-20T23:09:39.295Z,98332.81
2022-10-20T23:12:09.975Z,98327.41
2022-10-20T23:14:37.937Z,98328.38
2022-10-20T23:17:05.912Z,98329.25
2022-10-20T23:19:33.880Z,98321.84
2022-10-20T23:22:01.871Z,98315.91
2022-10-20T23:24:29.819Z,98317.91
2022-10-20T23:26:59.138Z,98333.44
2022-10-20T23:29:27.087Z,98330.78
2022-10-20T23:31:55.227Z,98351.47
2022-10-20T23:34:23.342Z,98349.25
2022-10-20T23:36:51.729Z,98356.91
2022-10-20T23:39:19.699Z,98345.56
2022-10-20T23:41:47.655Z,98357.69
2022-10-20T23:44:17.000Z,98356.56
2022-10-20T23:46:44.991Z,98345.38
2022-10-20T23:49:12.943Z,98347.72
2022-10-20T23:51:40.919Z,98352.66
2022-10-20T23:54:08.875Z,98343.56
2022-10-20T23:56:37.094Z,98343.56
